Pagrindinis puslapis
METAR-TAF:

METAR-TAF

Oro uostai :

Tanana, Aliaska, Jungtinės Amerikos Valstijos

platuma: 65-10N, ilguma: 152-06W, Aukštis: 69 m

Dabartinis oras

Ataskaita buvo paskelbta 38 minutes, ne 23:52 UTC
Ramus vėjas
Temperatūra 8°C
Drėgmė 71%
Slėgis 1007 hPa
Matomumas: 16.1 km
Išsisklaidę debesys ne aukštis 5000 ft
Su prošvaistėmis ne aukštis 10000 ft

METAR: PATA 202352Z 00000KT 10SM SCT050 BKN100 08/03 A2975 RMK AO2 SLP079 60000 T00830028 10089 20050 58014 $

Laikas: 16:30 (00:30 UTC)

Prognozė

Ataskaita buvo paskelbta 1 valandą ir 3 minutes, ne 23:27 UTC
Prognozė galioja nuo 21 metu 00 UTC su 21 metu 24 UTC
Vėjas 5 kt nuo kintamojo kryptimis
Matomumas: 10 km
Išsisklaidę debesys ne aukštis 3000 ft
Su prošvaistėmis ne aukštis 5000 ft

TAF: PATA 202327Z 2100/2124 VRB05KT P6SM SCT030 BKN050

Orai ataskaitas ir orų prognozės (METAR, TAF).

turimą stotys yra geltonos ir raudonos taškus žemėlapyje.

Perkelti pele per norėdami pamatyti stoties vardą.

Tada spustelėkite, norėdami matyti oro stebėjimo ir prognozės.

Norėdami pakeisti žemėlapį: spustelėkite ant žalios mygtukų su juodo kryžiaus žemyn,; žalią mygtuką su brūkšneliu, jei norite nutolinti; arba žalių rodyklių gretimoms žemėlapius.


METAR-TAF: